Time;durP1;ratioP1;P1;durP2;ratioP2;P2;SDS_P1;SDS_P2;PMS_P1;PMS_P2;Temp;Humidity;BMP_temperature;BMP_pressure;BME280_temperature;BME280_humidity;BME280_pressure;Samples;Min_cycle;Max_cycle;Signal;HPM_P1;HPM_P2
2023/05/23 00:01:15;;;;;;;39.35;20.48;;;16.00;99.90;;;;;;5071354;28;20090;-72
2023/05/23 00:03:42;;;;;;;40.92;21.52;;;16.00;99.90;;;;;;5070912;28;20096;-73
2023/05/23 00:06:07;;;;;;;42.65;21.60;;;16.00;99.90;;;;;;5071320;28;20032;-72
2023/05/23 00:08:33;;;;;;;37.25;20.48;;;16.00;99.90;;;;;;5070742;28;20036;-73
2023/05/23 00:10:59;;;;;;;37.42;21.10;;;15.90;99.90;;;;;;5071425;28;20040;-72
2023/05/23 00:13:25;;;;;;;51.60;23.10;;;15.90;99.90;;;;;;5070750;28;20035;-72
2023/05/23 00:15:51;;;;;;;38.85;21.58;;;15.80;99.90;;;;;;5069851;28;20029;-72
2023/05/23 00:18:17;;;;;;;35.03;20.08;;;15.80;99.90;;;;;;5071339;28;20058;-72
2023/05/23 00:20:43;;;;;;;38.58;21.35;;;15.80;99.90;;;;;;5070387;28;20029;-72
2023/05/23 00:23:17;;;;;;;39.75;21.48;;;15.80;99.90;;;;;;5071544;28;20028;-72
2023/05/23 00:25:47;;;;;;;43.10;21.95;;;15.70;99.90;;;;;;5069040;28;20029;-72
2023/05/23 00:28:13;;;;;;;44.57;23.23;;;15.80;99.90;;;;;;5071268;28;20056;-72
2023/05/23 00:30:39;;;;;;;41.58;21.48;;;15.80;99.90;;;;;;5068583;28;20036;-72
2023/05/23 00:33:05;;;;;;;39.53;22.13;;;15.70;99.90;;;;;;5071099;28;20024;-72
2023/05/23 00:35:30;;;;;;;45.03;22.23;;;15.70;99.90;;;;;;5070230;28;20029;-73
2023/05/23 00:37:56;;;;;;;40.00;21.40;;;15.70;99.90;;;;;;5070977;28;20117;-72
2023/05/23 00:40:22;;;;;;;44.78;22.45;;;15.60;99.90;;;;;;5069478;28;20058;-72
2023/05/23 00:42:48;;;;;;;39.13;21.40;;;15.70;99.90;;;;;;5070374;28;20071;-73
2023/05/23 00:45:15;;;;;;;41.13;22.65;;;15.60;99.90;;;;;;5070908;28;20040;-72
2023/05/23 00:47:42;;;;;;;44.72;23.70;;;15.60;99.90;;;;;;5070053;28;20031;-72
2023/05/23 00:50:10;;;;;;;43.10;23.73;;;15.70;99.90;;;;;;5070661;28;20047;-72
2023/05/23 00:52:37;;;;;;;41.60;22.35;;;15.60;99.90;;;;;;5070121;28;20074;-73
2023/05/23 00:55:04;;;;;;;42.00;22.92;;;15.60;99.90;;;;;;5070511;28;20543;-72
2023/05/23 00:57:30;;;;;;;41.75;22.85;;;15.60;99.90;;;;;;5070122;28;20029;-73
2023/05/23 00:59:56;;;;;;;43.58;22.83;;;15.50;99.90;;;;;;5070418;28;20043;-73
2023/05/23 01:02:21;;;;;;;42.20;22.52;;;15.50;99.90;;;;;;5068286;28;20052;-72
2023/05/23 01:04:55;;;;;;;48.67;23.35;;;15.40;99.90;;;;;;5069644;28;20233;-73
2023/05/23 01:07:21;;;;;;;45.83;22.48;;;15.40;99.90;;;;;;5068999;28;20028;-72
2023/05/23 01:09:48;;;;;;;43.58;22.67;;;15.30;99.90;;;;;;5069451;28;20495;-72
2023/05/23 01:12:27;;;;;;;44.80;22.95;;;15.30;99.90;;;;;;5070296;28;20040;-72
2023/05/23 01:15:08;;;;;;;48.13;22.07;;;15.20;99.90;;;;;;5070093;28;20043;-72
2023/05/23 01:17:55;;;;;;;45.92;23.40;;;15.10;99.90;;;;;;5069381;28;20037;-72
2023/05/23 01:20:25;;;;;;;44.63;22.98;;;15.00;99.90;;;;;;5070047;28;20064;-72
2023/05/23 01:22:59;;;;;;;47.70;24.05;;;15.00;99.90;;;;;;5069622;28;20032;-73
2023/05/23 01:25:45;;;;;;;45.10;24.30;;;15.00;99.90;;;;;;5068591;28;20558;-72
2023/05/23 01:28:17;;;;;;;45.80;25.30;;;15.00;99.90;;;;;;5068484;28;20028;-72
2023/05/23 01:30:45;;;;;;;51.65;25.45;;;15.00;99.90;;;;;;5067427;28;20041;-72
2023/05/23 01:33:14;;;;;;;46.95;24.92;;;15.00;99.90;;;;;;5069941;28;20050;-72
2023/05/23 01:35:42;;;;;;;47.60;25.73;;;14.90;99.90;;;;;;5069065;28;20032;-72
2023/05/23 01:38:08;;;;;;;47.63;25.48;;;14.90;99.90;;;;;;5069495;28;20086;-72
2023/05/23 01:40:35;;;;;;;54.63;26.45;;;14.90;99.90;;;;;;5067443;28;20568;-72
2023/05/23 01:43:01;;;;;;;53.88;27.15;;;14.90;99.90;;;;;;5069690;28;20032;-72
2023/05/23 01:45:28;;;;;;;58.65;28.02;;;14.90;99.90;;;;;;5069570;28;20404;-72
2023/05/23 01:47:55;;;;;;;51.63;26.50;;;14.90;99.90;;;;;;5069121;28;20103;-72
2023/05/23 01:50:22;;;;;;;52.95;27.38;;;14.90;99.90;;;;;;5069527;28;20040;-72
2023/05/23 01:52:49;;;;;;;54.33;27.75;;;14.90;99.90;;;;;;5067356;28;20033;-73
2023/05/23 01:55:21;;;;;;;56.05;27.08;;;14.90;99.90;;;;;;5069482;28;20050;-72
2023/05/23 01:57:50;;;;;;;61.47;28.80;;;14.90;99.90;;;;;;5068683;28;20110;-72
2023/05/23 02:00:17;;;;;;;56.90;29.13;;;14.80;99.90;;;;;;5069126;28;20036;-72
2023/05/23 02:02:43;;;;;;;56.85;29.05;;;14.80;99.90;;;;;;5068581;28;20087;-72
2023/05/23 02:05:10;;;;;;;60.95;28.08;;;14.80;99.90;;;;;;5069243;28;20059;-72
2023/05/23 02:07:36;;;;;;;52.97;27.23;;;14.70;99.90;;;;;;5068369;28;20039;-72
2023/05/23 02:10:03;;;;;;;57.65;29.13;;;14.70;99.90;;;;;;5068961;28;20048;-72
2023/05/23 02:12:29;;;;;;;57.85;29.25;;;14.70;99.90;;;;;;5068719;28;20086;-73
2023/05/23 02:14:55;;;;;;;60.00;29.90;;;14.70;99.90;;;;;;5067906;28;20036;-72
2023/05/23 02:17:23;;;;;;;67.55;29.48;;;14.70;99.90;;;;;;5068919;28;20037;-72
2023/05/23 02:19:48;;;;;;;59.42;28.80;;;14.60;99.90;;;;;;5066672;28;20078;-72
2023/05/23 02:22:14;;;;;;;67.68;32.50;;;14.50;99.90;;;;;;5068856;28;20032;-72
2023/05/23 02:24:40;;;;;;;63.75;29.77;;;14.50;99.90;;;;;;5068215;28;20025;-72
2023/05/23 02:27:06;;;;;;;66.70;30.35;;;14.50;99.90;;;;;;5068923;28;20111;-72
2023/05/23 02:29:32;;;;;;;63.83;31.45;;;14.50;99.90;;;;;;5068391;28;20461;-72
2023/05/23 02:31:57;;;;;;;66.40;31.92;;;14.40;99.90;;;;;;5068405;28;20047;-72
2023/05/23 02:34:23;;;;;;;72.22;33.38;;;14.40;99.90;;;;;;5069100;28;20480;-72
2023/05/23 02:36:48;;;;;;;74.03;32.42;;;14.50;99.90;;;;;;5067754;28;20039;-72
2023/05/23 02:39:14;;;;;;;76.88;34.53;;;14.40;99.90;;;;;;5068753;28;20063;-72
2023/05/23 02:41:40;;;;;;;79.45;35.28;;;14.50;99.90;;;;;;5067838;28;20123;-72
2023/05/23 02:44:05;;;;;;;78.28;34.55;;;14.50;99.90;;;;;;5068761;28;20805;-72
2023/05/23 02:46:31;;;;;;;84.25;37.25;;;14.40;99.90;;;;;;5067046;28;20135;-72
2023/05/23 02:48:57;;;;;;;91.53;38.40;;;14.50;99.90;;;;;;5066696;28;20078;-72
2023/05/23 02:51:23;;;;;;;103.88;40.50;;;14.60;99.90;;;;;;5068573;28;20035;-72
2023/05/23 02:53:48;;;;;;;105.07;41.08;;;14.50;99.90;;;;;;5067871;28;20032;-73
2023/05/23 02:56:14;;;;;;;89.45;37.83;;;14.60;99.90;;;;;;5067149;28;20461;-72
2023/05/23 02:58:40;;;;;;;89.90;38.60;;;14.60;99.90;;;;;;5067777;28;20025;-72
2023/05/23 03:01:07;;;;;;;92.75;40.70;;;14.60;99.90;;;;;;5068196;28;20043;-72
2023/05/23 03:03:32;;;;;;;106.20;41.65;;;14.60;99.90;;;;;;5067812;28;20143;-72
2023/05/23 03:06:03;;;;;;;103.82;43.20;;;14.60;99.90;;;;;;5068053;28;20115;-72
2023/05/23 03:08:29;;;;;;;110.72;45.10;;;14.70;99.90;;;;;;5068516;28;20031;-72
2023/05/23 03:10:55;;;;;;;113.05;44.60;;;14.70;99.90;;;;;;5067610;28;20028;-72
2023/05/23 03:13:20;;;;;;;115.53;45.60;;;14.80;99.90;;;;;;5068413;28;20094;-72
2023/05/23 03:15:46;;;;;;;113.03;44.00;;;14.80;99.90;;;;;;5067918;28;20037;-72
2023/05/23 03:18:12;;;;;;;112.40;45.00;;;14.80;99.90;;;;;;5068406;28;20028;-72
2023/05/23 03:20:37;;;;;;;123.82;44.17;;;14.80;99.90;;;;;;5066204;28;20178;-72
2023/05/23 03:23:03;;;;;;;104.85;43.45;;;14.80;99.90;;;;;;5068301;28;20025;-72
2023/05/23 03:25:28;;;;;;;115.82;44.33;;;14.80;99.90;;;;;;5069995;28;20039;-72
2023/05/23 03:27:54;;;;;;;109.18;44.83;;;14.80;99.90;;;;;;5071546;28;20103;-72
2023/05/23 03:30:20;;;;;;;121.97;44.80;;;14.80;99.90;;;;;;5071989;28;20123;-72
2023/05/23 03:32:46;;;;;;;107.40;42.50;;;14.80;99.90;;;;;;5071502;28;20178;-72
2023/05/23 03:35:12;;;;;;;110.15;44.28;;;14.80;99.90;;;;;;5071946;28;20385;-72
2023/05/23 03:37:37;;;;;;;115.40;43.33;;;14.80;99.90;;;;;;5071446;28;20036;-72
2023/05/23 03:40:04;;;;;;;130.07;45.97;;;14.80;99.90;;;;;;5072137;28;20611;-72
2023/05/23 03:42:30;;;;;;;114.93;45.78;;;14.80;99.90;;;;;;5071797;28;20465;-72
2023/05/23 03:44:55;;;;;;;110.03;43.38;;;14.90;99.90;;;;;;5069717;28;20028;-72
2023/05/23 03:47:23;;;;;;;120.63;45.67;;;14.90;99.90;;;;;;5071919;28;20121;-72
2023/05/23 03:49:49;;;;;;;113.60;45.25;;;14.90;99.90;;;;;;5071017;28;20044;-70
2023/05/23 03:52:15;;;;;;;115.57;44.67;;;14.90;99.90;;;;;;5071831;28;20051;-72
2023/05/23 03:54:41;;;;;;;115.85;46.42;;;14.90;99.90;;;;;;5071015;28;20025;-73
2023/05/23 03:57:06;;;;;;;121.13;45.97;;;15.00;99.90;;;;;;5071774;28;20035;-72
2023/05/23 03:59:32;;;;;;;118.90;46.70;;;14.90;99.90;;;;;;5071488;28;20021;-72
2023/05/23 04:01:59;;;;;;;119.18;46.30;;;14.90;99.90;;;;;;5070316;28;20186;-72
2023/05/23 04:04:26;;;;;;;115.22;46.40;;;14.90;99.90;;;;;;5071648;28;20036;-73
2023/05/23 04:06:51;;;;;;;117.70;45.58;;;14.90;99.90;;;;;;5069640;28;20558;-72
2023/05/23 04:09:17;;;;;;;114.82;46.25;;;14.90;99.90;;;;;;5071369;28;20063;-72
2023/05/23 04:11:43;;;;;;;114.78;47.10;;;14.90;99.90;;;;;;5070539;28;20028;-72
2023/05/23 04:14:09;;;;;;;121.10;47.28;;;14.90;99.90;;;;;;5071384;28;20029;-72
2023/05/23 04:16:36;;;;;;;119.63;46.22;;;15.00;99.90;;;;;;5071406;28;20035;-72
2023/05/23 04:19:03;;;;;;;129.05;48.42;;;15.00;99.90;;;;;;5071149;28;20092;-72
2023/05/23 04:21:29;;;;;;;120.85;47.25;;;15.00;99.90;;;;;;5071245;28;20020;-72
2023/05/23 04:23:55;;;;;;;124.28;47.88;;;15.00;99.90;;;;;;5070224;28;20112;-72
2023/05/23 04:26:21;;;;;;;110.55;47.50;;;15.10;99.90;;;;;;5069576;28;20103;-72
2023/05/23 04:28:47;;;;;;;116.80;47.35;;;15.10;99.90;;;;;;5070551;28;20033;-72
2023/05/23 04:31:13;;;;;;;115.22;46.78;;;15.10;99.90;;;;;;5070728;28;20497;-72
2023/05/23 04:33:40;;;;;;;115.45;46.78;;;15.20;99.90;;;;;;5070758;28;20045;-72
2023/05/23 04:36:08;;;;;;;112.25;46.22;;;15.20;99.90;;;;;;5070441;28;20112;-71
2023/05/23 04:38:34;;;;;;;115.82;46.63;;;15.30;99.90;;;;;;5070718;28;20020;-71
2023/05/23 04:41:00;;;;;;;109.55;45.97;;;15.30;99.90;;;;;;5070078;28;20629;-71
2023/05/23 04:43:28;;;;;;;117.25;46.85;;;15.30;99.90;;;;;;5070915;28;20044;-71
2023/05/23 04:45:53;;;;;;;116.30;45.95;;;15.30;99.90;;;;;;5070149;28;20372;-72
2023/05/23 04:48:20;;;;;;;110.03;46.40;;;15.40;99.90;;;;;;5070631;28;20029;-72
2023/05/23 04:50:49;;;;;;;118.50;47.65;;;15.40;99.90;;;;;;5069922;28;20025;-72
2023/05/23 04:53:15;;;;;;;121.78;46.85;;;15.40;99.90;;;;;;5070824;28;20028;-71
2023/05/23 04:55:40;;;;;;;115.57;46.00;;;15.50;99.90;;;;;;5070207;28;20534;-72
2023/05/23 04:58:06;;;;;;;105.85;45.67;;;15.50;99.90;;;;;;5070280;28;20029;-72
2023/05/23 05:00:32;;;;;;;119.63;46.22;;;15.60;99.90;;;;;;5070594;28;20024;-71
2023/05/23 05:02:58;;;;;;;109.93;46.50;;;15.60;99.90;;;;;;5069750;28;20052;-71
2023/05/23 05:05:23;;;;;;;107.13;46.03;;;15.70;99.90;;;;;;5070251;28;20066;-72
2023/05/23 05:07:49;;;;;;;116.25;46.15;;;15.80;99.90;;;;;;5069474;28;20086;-72
2023/05/23 05:10:17;;;;;;;121.75;48.38;;;15.90;99.90;;;;;;5070325;28;20453;-71
2023/05/23 05:12:45;;;;;;;113.57;46.33;;;15.80;99.90;;;;;;5069660;28;20044;-72
2023/05/23 05:15:12;;;;;;;109.50;46.90;;;15.90;99.90;;;;;;5070187;28;20021;-72
2023/05/23 05:17:38;;;;;;;115.45;48.22;;;15.90;99.90;;;;;;5070267;28;20029;-72
2023/05/23 05:20:07;;;;;;;107.38;46.40;;;15.90;99.90;;;;;;5069305;28;20028;-71
2023/05/23 05:22:39;;;;;;;117.22;48.42;;;16.00;99.90;;;;;;5070161;28;20104;-72
2023/05/23 05:25:06;;;;;;;101.05;45.47;;;16.00;99.90;;;;;;5069303;28;20021;-71
2023/05/23 05:27:32;;;;;;;106.35;45.08;;;16.10;99.90;;;;;;5069986;28;20029;-71
2023/05/23 05:30:03;;;;;;;105.18;45.08;;;16.10;99.90;;;;;;5068761;28;20111;-72
2023/05/23 05:32:32;;;;;;;104.50;45.53;;;16.20;99.90;;;;;;5069808;28;20041;-71
2023/05/23 05:34:59;;;;;;;101.03;44.75;;;16.40;99.90;;;;;;5069069;28;20025;-72
2023/05/23 05:37:25;;;;;;;100.03;43.78;;;16.40;99.90;;;;;;5068383;28;20064;-72
2023/05/23 05:39:53;;;;;;;94.72;41.55;;;16.50;99.90;;;;;;5068978;28;20039;-72
2023/05/23 05:42:19;;;;;;;86.22;40.25;;;16.50;99.90;;;;;;5069553;28;20036;-72
2023/05/23 05:44:44;;;;;;;92.50;40.67;;;16.50;99.90;;;;;;5069184;28;20024;-72
2023/05/23 05:47:10;;;;;;;91.97;40.55;;;16.60;99.90;;;;;;5069325;28;20487;-72
2023/05/23 05:49:36;;;;;;;85.78;36.97;;;16.60;99.90;;;;;;5068898;28;20078;-71
2023/05/23 05:52:01;;;;;;;81.03;38.75;;;16.50;99.90;;;;;;5068609;28;20229;-72
2023/05/23 05:54:27;;;;;;;74.57;36.83;;;16.50;99.90;;;;;;5068103;28;20128;-72
2023/05/23 05:56:54;;;;;;;73.82;35.83;;;16.60;99.90;;;;;;5068686;28;20454;-72
2023/05/23 05:59:20;;;;;;;82.00;36.95;;;16.60;99.90;;;;;;5069454;28;20537;-72
2023/05/23 06:01:45;;;;;;;75.05;36.45;;;16.70;99.90;;;;;;5068098;28;20135;-72
2023/05/23 06:04:11;;;;;;;70.20;35.70;;;16.70;99.90;;;;;;5067766;28;20481;-72
2023/05/23 06:06:37;;;;;;;69.80;34.95;;;16.80;99.90;;;;;;5069060;28;20358;-71
2023/05/23 06:09:02;;;;;;;72.82;34.88;;;16.80;99.90;;;;;;5068244;28;20032;-71
2023/05/23 06:11:28;;;;;;;73.00;35.20;;;16.80;99.90;;;;;;5069154;28;20056;-71
2023/05/23 06:13:53;;;;;;;71.25;34.80;;;16.80;99.90;;;;;;5068340;28;20032;-72
2023/05/23 06:16:19;;;;;;;73.60;34.20;;;16.80;99.90;;;;;;5067587;28;20040;-71
2023/05/23 06:18:45;;;;;;;69.00;34.75;;;16.80;99.90;;;;;;5068736;28;20064;-72
2023/05/23 06:21:10;;;;;;;67.65;34.10;;;16.80;99.90;;;;;;5068443;28;20413;-71
2023/05/23 06:23:36;;;;;;;63.67;32.75;;;16.80;99.90;;;;;;5068952;28;20488;-72
2023/05/23 06:26:02;;;;;;;67.75;32.95;;;16.90;99.90;;;;;;5068181;28;20024;-71
2023/05/23 06:28:27;;;;;;;58.03;31.65;;;17.00;99.90;;;;;;5068969;28;20039;-72
2023/05/23 06:30:53;;;;;;;57.83;29.90;;;17.00;99.90;;;;;;5068125;28;20033;-72
2023/05/23 06:33:19;;;;;;;59.60;31.42;;;17.20;99.90;;;;;;5067397;28;20396;-72
2023/05/23 06:35:44;;;;;;;57.05;29.90;;;17.40;99.90;;;;;;5068681;28;20032;-72
2023/05/23 06:38:10;;;;;;;57.35;29.40;;;17.40;99.90;;;;;;5068267;28;20024;-72
2023/05/23 06:40:36;;;;;;;54.17;28.35;;;17.40;99.90;;;;;;5068841;28;20735;-71
2023/05/23 06:43:01;;;;;;;56.70;28.38;;;17.40;99.90;;;;;;5067987;28;20025;-72
2023/05/23 06:45:27;;;;;;;52.38;27.55;;;17.40;99.90;;;;;;5068461;28;20017;-72
2023/05/23 06:47:52;;;;;;;57.05;29.35;;;17.40;99.90;;;;;;5067849;28;20027;-72
2023/05/23 06:50:21;;;;;;;57.05;29.05;;;17.40;99.90;;;;;;5068394;28;20369;-72
2023/05/23 06:52:47;;;;;;;55.53;29.23;;;17.30;99.90;;;;;;5068383;28;20039;-72
2023/05/23 06:55:17;;;;;;;50.22;27.70;;;17.30;99.90;;;;;;5068230;28;20021;-72
2023/05/23 06:57:43;;;;;;;47.35;26.05;;;17.30;99.90;;;;;;5067215;28;20119;-72
2023/05/23 07:00:10;;;;;;;49.58;26.65;;;17.40;99.90;;;;;;5067154;28;20248;-71
2023/05/23 07:02:35;;;;;;;48.08;26.85;;;17.60;99.90;;;;;;5068502;28;20405;-72
2023/05/23 07:05:01;;;;;;;51.78;27.83;;;17.80;99.90;;;;;;5067665;28;20025;-72
2023/05/23 07:07:27;;;;;;;51.90;27.95;;;18.10;99.90;;;;;;5068516;28;20074;-71
2023/05/23 07:09:52;;;;;;;51.08;28.55;;;18.40;99.90;;;;;;5066359;28;20656;-72
2023/05/23 07:12:18;;;;;;;52.00;28.05;;;18.70;99.90;;;;;;5068327;28;20060;-72
2023/05/23 07:14:44;;;;;;;48.38;27.13;;;18.90;99.90;;;;;;5068228;28;20032;-71
2023/05/23 07:17:09;;;;;;;44.50;25.73;;;18.90;99.90;;;;;;5067401;28;20197;-71
2023/05/23 07:19:35;;;;;;;43.80;24.23;;;18.90;99.90;;;;;;5068460;28;20468;-72
2023/05/23 07:22:00;;;;;;;49.05;27.50;;;18.90;99.90;;;;;;5067829;28;20086;-72
2023/05/23 07:24:26;;;;;;;53.20;25.77;;;18.70;99.90;;;;;;5068618;28;20029;-71
2023/05/23 07:26:52;;;;;;;52.05;26.65;;;18.60;99.90;;;;;;5067561;28;20070;-72
2023/05/23 07:29:17;;;;;;;44.83;25.75;;;18.50;99.90;;;;;;5068365;28;20029;-72
2023/05/23 07:31:43;;;;;;;44.15;25.67;;;18.30;99.90;;;;;;5068320;28;20484;-71
2023/05/23 07:34:08;;;;;;;47.10;26.25;;;18.20;99.90;;;;;;5067543;28;20025;-71
2023/05/23 07:36:36;;;;;;;45.63;26.42;;;18.20;99.90;;;;;;5068226;28;20079;-71
2023/05/23 07:39:03;;;;;;;44.38;23.73;;;18.20;99.90;;;;;;5067428;28;20062;-71
2023/05/23 07:41:28;;;;;;;50.75;25.65;;;18.30;99.90;;;;;;5067949;28;20535;-71
2023/05/23 07:43:54;;;;;;;54.30;27.55;;;18.30;99.90;;;;;;5065831;28;20032;-72
2023/05/23 07:46:21;;;;;;;49.35;27.23;;;18.30;99.90;;;;;;5068141;28;20025;-71
2023/05/23 07:48:47;;;;;;;55.50;27.45;;;18.10;99.90;;;;;;5068080;28;20431;-72
2023/05/23 07:51:13;;;;;;;49.72;28.45;;;18.00;99.90;;;;;;5065823;28;20033;-71
2023/05/23 07:53:38;;;;;;;51.55;28.75;;;17.90;99.90;;;;;;5068293;28;20058;-71
2023/05/23 07:56:05;;;;;;;54.88;29.38;;;18.00;99.90;;;;;;5067215;28;20027;-70
2023/05/23 07:58:31;;;;;;;51.88;28.60;;;18.10;99.90;;;;;;5068084;28;20119;-71
2023/05/23 08:00:57;;;;;;;53.75;27.55;;;18.20;99.90;;;;;;5066951;28;20116;-71
2023/05/23 08:03:23;;;;;;;47.83;27.20;;;18.40;99.90;;;;;;5068030;28;20057;-71
2023/05/23 08:05:48;;;;;;;50.45;28.00;;;18.70;99.90;;;;;;5067947;28;20033;-71
2023/05/23 08:08:15;;;;;;;50.45;27.80;;;18.90;99.90;;;;;;5067413;28;20089;-71
2023/05/23 08:10:40;;;;;;;45.85;26.42;;;19.00;99.90;;;;;;5067873;28;20038;-71
2023/05/23 08:13:08;;;;;;;45.63;24.45;;;19.10;99.90;;;;;;5069608;28;20036;-71
2023/05/23 08:15:34;;;;;;;45.60;26.10;;;19.10;99.90;;;;;;5071529;28;20108;-71
2023/05/23 08:18:00;;;;;;;45.80;24.75;;;19.20;99.90;;;;;;5070430;28;20108;-71
2023/05/23 08:20:29;;;;;;;45.88;25.48;;;19.20;99.90;;;;;;5071531;28;20039;-71
2023/05/23 08:23:00;;;;;;;44.97;23.50;;;19.30;99.90;;;;;;5070376;28;20029;-72
2023/05/23 08:25:32;;;;;;;;;;;19.40;99.90;;;;;;5070292;28;20476;-71
2023/05/23 08:27:59;;;;;;;41.55;23.00;;;19.50;99.90;;;;;;5070605;28;19930;-71
2023/05/23 08:30:25;;;;;;;37.00;23.38;;;19.60;99.90;;;;;;5071070;28;20579;-71
2023/05/23 08:32:55;;;;;;;40.83;24.02;;;19.90;99.90;;;;;;5069718;28;20446;-72
2023/05/23 08:35:21;;;;;;;41.93;23.10;;;20.30;99.90;;;;;;5071315;28;20039;-71
2023/05/23 08:37:48;;;;;;;37.97;22.65;;;20.50;99.90;;;;;;5071094;28;20028;-71
2023/05/23 08:40:22;;;;;;;40.70;22.70;;;20.70;99.90;;;;;;5070191;28;20111;-71
2023/05/23 08:42:48;;;;;;;40.85;22.38;;;20.60;99.90;;;;;;5071044;28;20035;-71
2023/05/23 08:45:15;;;;;;;40.25;22.05;;;20.60;99.90;;;;;;5068859;28;20032;-71
2023/05/23 08:47:45;;;;;;;39.83;23.08;;;20.50;99.90;;;;;;5070722;28;20051;-71
2023/05/23 08:50:16;;;;;;;39.22;22.23;;;20.40;99.90;;;;;;5070055;28;20033;-71
2023/05/23 08:53:01;;;;;;;39.65;22.83;;;20.30;99.90;;;;;;5069500;28;20442;-71
2023/05/23 08:55:28;;;;;;;38.55;21.92;;;20.20;99.90;;;;;;5069469;28;20477;-71
2023/05/23 08:57:55;;;;;;;40.50;21.70;;;20.10;99.90;;;;;;5070553;28;20032;-71
2023/05/23 09:00:22;;;;;;;40.67;22.35;;;19.90;99.90;;;;;;5070524;28;20036;-71
2023/05/23 09:02:48;;;;;;;32.05;20.15;;;19.90;99.90;;;;;;5070113;28;20084;-71
2023/05/23 09:05:13;;;;;;;36.40;21.10;;;19.90;99.90;;;;;;5069773;28;20024;-71
2023/05/23 09:07:40;;;;;;;37.03;20.65;;;19.70;99.90;;;;;;5070551;28;20028;-71
2023/05/23 09:10:09;;;;;;;34.80;21.17;;;19.60;99.90;;;;;;5069581;28;20131;-71
2023/05/23 09:12:36;;;;;;;39.05;21.50;;;19.40;99.90;;;;;;5070335;28;20036;-71
2023/05/23 09:15:03;;;;;;;40.38;21.50;;;19.30;99.90;;;;;;5069595;28;20101;-72
2023/05/23 09:17:33;;;;;;;35.58;20.60;;;19.10;99.90;;;;;;5068869;28;20040;-71
2023/05/23 09:20:02;;;;;;;35.15;20.00;;;19.20;99.90;;;;;;5069558;28;20039;-72
2023/05/23 09:22:29;;;;;;;39.75;22.08;;;19.30;99.90;;;;;;5070011;28;20874;-71
2023/05/23 09:24:55;;;;;;;41.55;23.65;;;19.20;99.90;;;;;;5070018;28;20107;-71
2023/05/23 09:27:21;;;;;;;41.75;21.38;;;19.10;99.90;;;;;;5068430;28;20738;-71
2023/05/23 09:29:48;;;;;;;38.05;22.95;;;19.20;99.90;;;;;;5069916;28;20035;-71
2023/05/23 09:32:15;;;;;;;36.60;21.38;;;19.30;99.90;;;;;;5068963;28;20112;-71
2023/05/23 09:34:59;;;;;;;41.00;22.25;;;19.30;99.90;;;;;;5070090;28;20032;-71
2023/05/23 09:37:32;;;;;;;36.67;22.08;;;19.40;99.90;;;;;;5069909;28;20028;-71
2023/05/23 09:39:59;;;;;;;39.30;22.65;;;19.40;99.90;;;;;;5069356;28;20035;-71
2023/05/23 09:42:30;;;;;;;39.00;22.23;;;19.30;99.90;;;;;;5068318;28;20028;-71
2023/05/23 09:44:57;;;;;;;36.70;23.27;;;19.20;99.90;;;;;;5069629;28;20056;-72
2023/05/23 09:47:23;;;;;;;34.53;21.27;;;19.40;99.90;;;;;;5069417;28;20473;-71
2023/05/23 09:49:50;;;;;;;34.63;21.38;;;19.70;99.90;;;;;;5069675;28;20028;-71
2023/05/23 09:52:16;;;;;;;35.15;21.33;;;19.80;99.90;;;;;;5068646;28;20036;-71
2023/05/23 09:54:42;;;;;;;34.67;19.23;;;20.00;99.90;;;;;;5069566;28;20388;-71
2023/05/23 09:57:12;;;;;;;37.72;20.95;;;20.40;99.90;;;;;;5068481;28;20067;-71
2023/05/23 09:59:40;;;;;;;31.50;19.70;;;20.80;99.90;;;;;;5069408;28;20024;-71
2023/05/23 10:02:15;;;;;;;38.22;18.63;;;20.80;99.90;;;;;;5068394;28;20079;-71
2023/05/23 10:04:42;;;;;;;35.35;21.13;;;21.10;99.90;;;;;;5069387;28;20078;-71
2023/05/23 10:07:18;;;;;;;31.92;18.40;;;21.20;99.90;;;;;;5068590;28;20035;-71
2023/05/23 10:09:53;;;;;;;30.30;19.45;;;21.10;99.90;;;;;;5069090;28;20032;-71
2023/05/23 10:12:46;;;;;;;30.13;18.45;;;21.00;99.90;;;;;;5068517;28;20027;-71
2023/05/23 10:15:15;;;;;;;24.70;15.50;;;20.80;99.90;;;;;;5068615;28;20033;-71
2023/05/23 10:17:46;;;;;;;26.27;16.83;;;20.80;99.90;;;;;;5069229;28;20024;-71
2023/05/23 10:20:15;;;;;;;28.92;16.30;;;21.00;99.90;;;;;;5068433;28;20457;-71
2023/05/23 10:22:42;;;;;;;23.33;15.10;;;21.30;99.90;;;;;;5069220;28;20140;-71
2023/05/23 10:25:09;;;;;;;22.08;14.80;;;21.20;99.90;;;;;;5066578;28;20025;-71
2023/05/23 10:27:37;;;;;;;24.88;14.90;;;21.20;99.90;;;;;;5067685;28;20028;-71
2023/05/23 10:30:03;;;;;;;23.23;15.32;;;21.10;99.90;;;;;;5068335;28;20052;-71
2023/05/23 10:32:30;;;;;;;26.27;14.80;;;21.20;99.90;;;;;;5068633;28;20052;-71
2023/05/23 10:35:12;;;;;;;23.15;14.27;;;21.10;99.90;;;;;;5066817;28;20093;-71
2023/05/23 10:38:08;;;;;;;23.20;14.00;;;21.00;99.90;;;;;;5067502;28;20031;-71
2023/05/23 10:40:49;;;;;;;23.17;13.48;;;21.10;99.90;;;;;;5069083;28;20032;-71
2023/05/23 10:43:43;;;;;;;20.45;13.75;;;21.70;99.90;;;;;;5068107;28;20427;-71
2023/05/23 10:46:11;;;;;;;23.08;13.60;;;22.10;99.90;;;;;;5066678;28;20032;-71
2023/05/23 10:48:43;;;;;;;20.48;14.02;;;22.00;99.90;;;;;;5068850;28;20078;-70
2023/05/23 10:51:14;;;;;;;23.83;14.38;;;21.80;99.90;;;;;;5067914;28;20028;-71
2023/05/23 10:53:40;;;;;;;23.27;13.68;;;21.70;99.90;;;;;;5067191;28;20029;-70
2023/05/23 10:56:17;;;;;;;29.52;14.77;;;21.50;99.90;;;;;;5067568;28;20116;-71
2023/05/23 10:58:43;;;;;;;22.80;14.60;;;21.40;99.90;;;;;;5067114;28;20058;-71
2023/05/23 11:01:14;;;;;;;23.88;14.63;;;20.90;99.90;;;;;;5067404;28;20036;-71
2023/05/23 11:03:46;;;;;;;21.10;12.85;;;20.90;99.90;;;;;;5068788;28;20056;-71
2023/05/23 11:06:43;;;;;;;25.38;14.23;;;21.30;99.90;;;;;;5067533;28;20119;-71
2023/05/23 11:09:19;;;;;;;24.70;13.70;;;21.70;99.90;;;;;;5067779;28;20033;-71
2023/05/23 11:11:54;;;;;;;25.00;15.27;;;21.90;99.90;;;;;;5068613;28;20060;-71
2023/05/23 11:14:33;;;;;;;19.25;13.23;;;21.90;99.90;;;;;;5067754;28;20029;-71
2023/05/23 11:17:11;;;;;;;26.08;15.35;;;21.90;99.90;;;;;;5068522;28;20040;-72
2023/05/23 11:19:38;;;;;;;26.13;14.75;;;21.90;99.90;;;;;;5068857;28;20069;-71
2023/05/23 11:22:08;;;;;;;25.55;15.52;;;21.90;99.90;;;;;;5068057;28;20029;-70
2023/05/23 11:24:50;;;;;;;20.70;13.70;;;21.90;99.90;;;;;;5068418;28;20021;-70
2023/05/23 11:27:19;;;;;;;25.27;14.25;;;21.80;99.90;;;;;;5067556;28;20036;-70
2023/05/23 11:29:56;;;;;;;25.00;14.98;;;21.60;99.90;;;;;;5066783;28;20083;-71
2023/05/23 11:32:22;;;;;;;23.50;14.55;;;21.60;99.90;;;;;;5066115;28;20944;-70
2023/05/23 11:34:48;;;;;;;26.75;15.18;;;21.60;99.90;;;;;;5068363;28;20032;-73
2023/05/23 11:37:16;;;;;;;22.95;14.63;;;21.80;99.90;;;;;;5066148;28;20500;-72
2023/05/23 11:39:41;;;;;;;22.33;14.43;;;22.40;99.90;;;;;;5068184;28;20096;-71
2023/05/23 11:42:07;;;;;;;33.05;15.13;;;22.70;99.90;;;;;;5067435;28;20048;-72
2023/05/23 11:44:33;;;;;;;20.88;13.60;;;23.00;99.90;;;;;;5068168;28;20048;-71
2023/05/23 11:47:00;;;;;;;22.45;14.80;;;23.30;99.90;;;;;;5070758;28;20166;-72
2023/05/23 11:49:27;;;;;;;26.73;15.65;;;23.30;99.90;;;;;;5071242;28;20020;-71
2023/05/23 11:51:53;;;;;;;27.88;15.18;;;23.00;99.90;;;;;;5071936;28;20074;-71
2023/05/23 11:54:23;;;;;;;30.42;15.48;;;23.00;99.90;;;;;;5071295;28;20071;-71
2023/05/23 11:56:49;;;;;;;23.77;14.98;;;22.90;99.90;;;;;;5071937;28;20029;-71
2023/05/23 11:59:15;;;;;;;23.70;15.00;;;23.00;99.90;;;;;;5070968;28;20028;-71
2023/05/23 12:01:42;;;;;;;25.05;15.18;;;22.80;99.90;;;;;;5071659;28;20048;-70
2023/05/23 12:04:11;;;;;;;24.52;14.27;;;22.60;99.90;;;;;;5071129;28;20028;-72
2023/05/23 12:06:39;;;;;;;25.60;14.73;;;22.50;99.90;;;;;;5071796;28;20060;-71
2023/05/23 12:09:06;;;;;;;24.42;14.55;;;22.40;99.90;;;;;;5071423;28;20032;-71
2023/05/23 12:11:32;;;;;;;38.70;14.90;;;22.40;99.90;;;;;;5071445;28;20032;-71
2023/05/23 12:14:00;;;;;;;27.70;13.32;;;22.30;99.90;;;;;;5071685;28;20219;-71
2023/05/23 12:16:28;;;;;;;22.25;13.82;;;21.90;99.90;;;;;;5070757;28;20234;-71
2023/05/23 12:18:55;;;;;;;21.80;13.63;;;21.70;99.90;;;;;;5071482;28;20039;-71
2023/05/23 12:21:25;;;;;;;20.73;12.07;;;21.70;99.90;;;;;;5070395;28;20438;-72
2023/05/23 12:23:50;;;;;;;18.75;11.95;;;21.80;99.90;;;;;;5071366;28;20025;-71
2023/05/23 12:26:16;;;;;;;16.52;10.82;;;22.00;99.90;;;;;;5070519;28;20037;-71
2023/05/23 12:28:44;;;;;;;16.40;10.32;;;21.90;99.90;;;;;;5071038;28;20369;-71